sensor_id;sensor_type;location;lat;lon;timestamp;temperature;humidity
49679;DHT22;35570;48.218;16.326;2023-09-19T00:00:41;21.40;92.90
49679;DHT22;35570;48.218;16.326;2023-09-19T00:03:07;21.40;92.80
49679;DHT22;35570;48.218;16.326;2023-09-19T00:05:36;21.30;93.20
49679;DHT22;35570;48.218;16.326;2023-09-19T00:08:04;21.30;93.00
49679;DHT22;35570;48.218;16.326;2023-09-19T00:12:59;21.20;93.30
49679;DHT22;35570;48.218;16.326;2023-09-19T00:15:35;21.20;93.80
49679;DHT22;35570;48.218;16.326;2023-09-19T00:18:01;21.10;94.30
49679;DHT22;35570;48.218;16.326;2023-09-19T00:20:27;21.00;94.80
49679;DHT22;35570;48.218;16.326;2023-09-19T00:22:55;20.90;95.40
49679;DHT22;35570;48.218;16.326;2023-09-19T00:25:20;20.90;96.00
49679;DHT22;35570;48.218;16.326;2023-09-19T00:27:47;20.80;96.70
49679;DHT22;35570;48.218;16.326;2023-09-19T00:30:17;20.80;98.90
49679;DHT22;35570;48.218;16.326;2023-09-19T00:32:47;20.60;97.80
49679;DHT22;35570;48.218;16.326;2023-09-19T00:37:41;20.30;98.50
49679;DHT22;35570;48.218;16.326;2023-09-19T00:40:08;20.20;99.30
49679;DHT22;35570;48.218;16.326;2023-09-19T00:42:38;20.20;99.30
49679;DHT22;35570;48.218;16.326;2023-09-19T00:45:05;20.00;99.40
49679;DHT22;35570;48.218;16.326;2023-09-19T00:47:31;20.00;99.60
49679;DHT22;35570;48.218;16.326;2023-09-19T00:49:57;20.00;99.50
49679;DHT22;35570;48.218;16.326;2023-09-19T00:52:24;19.90;99.70
49679;DHT22;35570;48.218;16.326;2023-09-19T00:54:50;19.90;99.80
49679;DHT22;35570;48.218;16.326;2023-09-19T00:57:16;19.90;99.90
49679;DHT22;35570;48.218;16.326;2023-09-19T00:59:43;19.80;99.90
49679;DHT22;35570;48.218;16.326;2023-09-19T01:02:09;19.80;99.90
49679;DHT22;35570;48.218;16.326;2023-09-19T01:04:35;19.80;99.90
49679;DHT22;35570;48.218;16.326;2023-09-19T01:07:01;19.70;99.90
49679;DHT22;35570;48.218;16.326;2023-09-19T01:09:27;19.70;99.90
49679;DHT22;35570;48.218;16.326;2023-09-19T01:11:58;19.70;99.90
49679;DHT22;35570;48.218;16.326;2023-09-19T01:14:42;19.70;99.90
49679;DHT22;35570;48.218;16.326;2023-09-19T01:17:20;19.70;99.90
49679;DHT22;35570;48.218;16.326;2023-09-19T01:22:42;19.60;99.90
49679;DHT22;35570;48.218;16.326;2023-09-19T01:30:35;19.40;99.90
49679;DHT22;35570;48.218;16.326;2023-09-19T01:33:06;19.30;99.90
49679;DHT22;35570;48.218;16.326;2023-09-19T01:35:32;19.30;99.90
49679;DHT22;35570;48.218;16.326;2023-09-19T01:37:59;19.20;99.90
49679;DHT22;35570;48.218;16.326;2023-09-19T01:40:25;19.20;99.90
49679;DHT22;35570;48.218;16.326;2023-09-19T01:43:22;19.20;99.90
49679;DHT22;35570;48.218;16.326;2023-09-19T01:46:06;19.20;99.90
49679;DHT22;35570;48.218;16.326;2023-09-19T01:48:41;19.10;99.90
49679;DHT22;35570;48.218;16.326;2023-09-19T01:51:14;19.10;99.90
49679;DHT22;35570;48.218;16.326;2023-09-19T01:53:53;19.20;99.90
49679;DHT22;35570;48.218;16.326;2023-09-19T01:59:06;19.20;99.90
49679;DHT22;35570;48.218;16.326;2023-09-19T02:01:33;19.20;99.90
49679;DHT22;35570;48.218;16.326;2023-09-19T02:04:00;19.20;99.90
49679;DHT22;35570;48.218;16.326;2023-09-19T02:06:26;19.20;99.90
49679;DHT22;35570;48.218;16.326;2023-09-19T02:08:54;19.20;99.90
49679;DHT22;35570;48.218;16.326;2023-09-19T02:11:20;19.10;99.90
49679;DHT22;35570;48.218;16.326;2023-09-19T02:13:46;19.10;99.90
49679;DHT22;35570;48.218;16.326;2023-09-19T02:16:12;19.10;99.90
49679;DHT22;35570;48.218;16.326;2023-09-19T02:18:38;19.10;99.90
49679;DHT22;35570;48.218;16.326;2023-09-19T02:21:04;19.10;99.90
49679;DHT22;35570;48.218;16.326;2023-09-19T02:23:32;19.20;99.90
49679;DHT22;35570;48.218;16.326;2023-09-19T02:25:59;19.10;99.90
49679;DHT22;35570;48.218;16.326;2023-09-19T02:28:26;19.10;99.90
49679;DHT22;35570;48.218;16.326;2023-09-19T02:31:01;19.20;99.90
49679;DHT22;35570;48.218;16.326;2023-09-19T02:33:27;19.20;99.90
49679;DHT22;35570;48.218;16.326;2023-09-19T02:35:58;19.30;99.90
49679;DHT22;35570;48.218;16.326;2023-09-19T02:38:25;19.30;99.90
49679;DHT22;35570;48.218;16.326;2023-09-19T02:40:54;19.20;99.90
49679;DHT22;35570;48.218;16.326;2023-09-19T02:43:21;19.20;99.90
49679;DHT22;35570;48.218;16.326;2023-09-19T02:45:47;19.20;99.90
49679;DHT22;35570;48.218;16.326;2023-09-19T02:48:15;19.20;99.90
49679;DHT22;35570;48.218;16.326;2023-09-19T02:50:41;19.20;99.90
49679;DHT22;35570;48.218;16.326;2023-09-19T02:53:07;19.30;99.90
49679;DHT22;35570;48.218;16.326;2023-09-19T02:55:33;19.20;99.90
49679;DHT22;35570;48.218;16.326;2023-09-19T02:57:59;19.20;99.90
49679;DHT22;35570;48.218;16.326;2023-09-19T03:00:27;19.30;99.90
49679;DHT22;35570;48.218;16.326;2023-09-19T03:02:55;19.30;99.90
49679;DHT22;35570;48.218;16.326;2023-09-19T03:05:22;19.30;99.90
49679;DHT22;35570;48.218;16.326;2023-09-19T03:07:49;19.30;99.90
49679;DHT22;35570;48.218;16.326;2023-09-19T03:10:19;19.30;99.90
49679;DHT22;35570;48.218;16.326;2023-09-19T03:12:46;19.30;99.90
49679;DHT22;35570;48.218;16.326;2023-09-19T03:15:11;19.30;99.90
49679;DHT22;35570;48.218;16.326;2023-09-19T03:17:37;19.40;99.90
49679;DHT22;35570;48.218;16.326;2023-09-19T03:20:03;19.40;99.90
49679;DHT22;35570;48.218;16.326;2023-09-19T03:22:34;19.40;99.90
49679;DHT22;35570;48.218;16.326;2023-09-19T03:24:59;19.30;99.90
49679;DHT22;35570;48.218;16.326;2023-09-19T03:27:26;19.30;99.90
49679;DHT22;35570;48.218;16.326;2023-09-19T03:29:52;19.40;99.90
49679;DHT22;35570;48.218;16.326;2023-09-19T03:32:19;19.40;99.90
49679;DHT22;35570;48.218;16.326;2023-09-19T03:34:44;19.30;99.90
49679;DHT22;35570;48.218;16.326;2023-09-19T03:37:10;19.30;99.90
49679;DHT22;35570;48.218;16.326;2023-09-19T03:39:37;19.40;99.90
49679;DHT22;35570;48.218;16.326;2023-09-19T03:42:03;19.40;99.90
49679;DHT22;35570;48.218;16.326;2023-09-19T03:44:32;19.30;99.90
49679;DHT22;35570;48.218;16.326;2023-09-19T03:46:58;19.30;99.90
49679;DHT22;35570;48.218;16.326;2023-09-19T03:49:24;19.30;99.90
49679;DHT22;35570;48.218;16.326;2023-09-19T03:51:50;19.30;99.90
49679;DHT22;35570;48.218;16.326;2023-09-19T03:54:15;19.40;99.90
49679;DHT22;35570;48.218;16.326;2023-09-19T03:56:42;19.30;99.90
49679;DHT22;35570;48.218;16.326;2023-09-19T03:59:09;19.30;99.90
49679;DHT22;35570;48.218;16.326;2023-09-19T04:01:35;19.30;99.90
49679;DHT22;35570;48.218;16.326;2023-09-19T04:04:00;19.30;99.90
49679;DHT22;35570;48.218;16.326;2023-09-19T04:06:34;19.40;99.90
49679;DHT22;35570;48.218;16.326;2023-09-19T04:09:01;19.40;99.90
49679;DHT22;35570;48.218;16.326;2023-09-19T04:11:27;19.40;99.90
49679;DHT22;35570;48.218;16.326;2023-09-19T04:13:53;19.40;99.90
49679;DHT22;35570;48.218;16.326;2023-09-19T04:16:19;19.30;99.90
49679;DHT22;35570;48.218;16.326;2023-09-19T04:18:45;19.30;99.90
49679;DHT22;35570;48.218;16.326;2023-09-19T04:21:10;19.30;99.90
49679;DHT22;35570;48.218;16.326;2023-09-19T04:23:36;19.30;99.90
49679;DHT22;35570;48.218;16.326;2023-09-19T04:26:02;19.30;99.90
49679;DHT22;35570;48.218;16.326;2023-09-19T04:28:30;19.30;99.90
49679;DHT22;35570;48.218;16.326;2023-09-19T04:30:56;19.30;99.90
49679;DHT22;35570;48.218;16.326;2023-09-19T04:33:23;19.30;99.90
49679;DHT22;35570;48.218;16.326;2023-09-19T04:35:49;19.30;99.90
49679;DHT22;35570;48.218;16.326;2023-09-19T04:38:17;19.20;99.90
49679;DHT22;35570;48.218;16.326;2023-09-19T04:40:42;19.20;99.90
49679;DHT22;35570;48.218;16.326;2023-09-19T04:43:09;19.20;99.90
49679;DHT22;35570;48.218;16.326;2023-09-19T04:45:34;19.20;99.90
49679;DHT22;35570;48.218;16.326;2023-09-19T04:48:00;19.20;99.90
49679;DHT22;35570;48.218;16.326;2023-09-19T04:50:25;19.10;99.90
49679;DHT22;35570;48.218;16.326;2023-09-19T04:52:53;19.10;99.90
49679;DHT22;35570;48.218;16.326;2023-09-19T04:55:19;19.20;99.90
49679;DHT22;35570;48.218;16.326;2023-09-19T04:57:49;19.20;99.90
49679;DHT22;35570;48.218;16.326;2023-09-19T05:00:17;19.20;99.90
49679;DHT22;35570;48.218;16.326;2023-09-19T05:02:48;19.20;99.90
49679;DHT22;35570;48.218;16.326;2023-09-19T05:05:14;19.10;99.90
49679;DHT22;35570;48.218;16.326;2023-09-19T05:07:42;19.10;99.90
49679;DHT22;35570;48.218;16.326;2023-09-19T05:10:08;19.10;99.90
49679;DHT22;35570;48.218;16.326;2023-09-19T05:12:34;19.10;99.90
49679;DHT22;35570;48.218;16.326;2023-09-19T05:15:07;19.00;99.90
49679;DHT22;35570;48.218;16.326;2023-09-19T05:17:34;19.00;99.90
49679;DHT22;35570;48.218;16.326;2023-09-19T05:20:00;19.00;99.90
49679;DHT22;35570;48.218;16.326;2023-09-19T05:23:02;19.10;99.90
49679;DHT22;35570;48.218;16.326;2023-09-19T05:25:32;19.00;99.90
49679;DHT22;35570;48.218;16.326;2023-09-19T05:27:58;19.00;99.90
49679;DHT22;35570;48.218;16.326;2023-09-19T05:30:25;19.00;99.90
49679;DHT22;35570;48.218;16.326;2023-09-19T05:32:53;19.10;99.90
49679;DHT22;35570;48.218;16.326;2023-09-19T05:35:19;19.10;99.90
49679;DHT22;35570;48.218;16.326;2023-09-19T05:37:47;19.10;99.90
49679;DHT22;35570;48.218;16.326;2023-09-19T05:40:19;19.10;99.90
49679;DHT22;35570;48.218;16.326;2023-09-19T05:42:45;19.00;99.90
49679;DHT22;35570;48.218;16.326;2023-09-19T05:45:11;19.10;99.90
49679;DHT22;35570;48.218;16.326;2023-09-19T05:47:38;19.10;99.90
49679;DHT22;35570;48.218;16.326;2023-09-19T05:50:06;19.20;99.90
49679;DHT22;35570;48.218;16.326;2023-09-19T05:52:33;19.30;99.90
49679;DHT22;35570;48.218;16.326;2023-09-19T05:54:58;19.20;99.90
49679;DHT22;35570;48.218;16.326;2023-09-19T05:57:25;19.10;99.90
49679;DHT22;35570;48.218;16.326;2023-09-19T05:59:50;19.10;99.90
49679;DHT22;35570;48.218;16.326;2023-09-19T06:02:16;19.00;99.90
49679;DHT22;35570;48.218;16.326;2023-09-19T06:04:42;19.00;99.90
49679;DHT22;35570;48.218;16.326;2023-09-19T06:07:07;19.10;99.90
49679;DHT22;35570;48.218;16.326;2023-09-19T06:09:33;19.00;99.90
49679;DHT22;35570;48.218;16.326;2023-09-19T06:11:59;19.10;99.90
49679;DHT22;35570;48.218;16.326;2023-09-19T06:14:28;19.10;99.90
49679;DHT22;35570;48.218;16.326;2023-09-19T06:16:54;19.10;99.90
49679;DHT22;35570;48.218;16.326;2023-09-19T06:19:20;19.20;99.90
49679;DHT22;35570;48.218;16.326;2023-09-19T06:21:48;19.20;99.90
49679;DHT22;35570;48.218;16.326;2023-09-19T06:24:14;19.30;99.90
49679;DHT22;35570;48.218;16.326;2023-09-19T06:26:40;19.30;99.90
49679;DHT22;35570;48.218;16.326;2023-09-19T06:29:06;19.40;99.90
49679;DHT22;35570;48.218;16.326;2023-09-19T06:31:33;19.40;99.90
49679;DHT22;35570;48.218;16.326;2023-09-19T06:33:59;19.50;99.90
49679;DHT22;35570;48.218;16.326;2023-09-19T06:36:25;19.50;99.90
49679;DHT22;35570;48.218;16.326;2023-09-19T06:38:50;19.50;99.90
49679;DHT22;35570;48.218;16.326;2023-09-19T06:41:18;19.50;99.90
49679;DHT22;35570;48.218;16.326;2023-09-19T06:43:44;19.50;99.90
49679;DHT22;35570;48.218;16.326;2023-09-19T06:46:10;19.50;99.90
49679;DHT22;35570;48.218;16.326;2023-09-19T06:48:38;19.50;99.90
49679;DHT22;35570;48.218;16.326;2023-09-19T06:51:04;19.50;99.90
49679;DHT22;35570;48.218;16.326;2023-09-19T06:53:34;19.50;99.90
49679;DHT22;35570;48.218;16.326;2023-09-19T06:56:01;19.50;99.90
49679;DHT22;35570;48.218;16.326;2023-09-19T06:58:27;19.50;99.90
49679;DHT22;35570;48.218;16.326;2023-09-19T07:00:53;19.50;99.90
49679;DHT22;35570;48.218;16.326;2023-09-19T07:03:19;19.50;99.90
49679;DHT22;35570;48.218;16.326;2023-09-19T07:05:47;19.50;99.90
49679;DHT22;35570;48.218;16.326;2023-09-19T07:08:14;19.50;99.90
49679;DHT22;35570;48.218;16.326;2023-09-19T07:10:41;19.50;99.90
49679;DHT22;35570;48.218;16.326;2023-09-19T07:13:13;19.50;99.90
49679;DHT22;35570;48.218;16.326;2023-09-19T07:15:42;19.50;99.90
49679;DHT22;35570;48.218;16.326;2023-09-19T07:18:13;19.60;99.90
49679;DHT22;35570;48.218;16.326;2023-09-19T07:20:40;19.60;99.90
49679;DHT22;35570;48.218;16.326;2023-09-19T07:23:11;19.70;99.90
49679;DHT22;35570;48.218;16.326;2023-09-19T07:25:39;19.70;99.90
49679;DHT22;35570;48.218;16.326;2023-09-19T07:28:05;19.70;99.90
49679;DHT22;35570;48.218;16.326;2023-09-19T07:30:30;19.70;99.90
49679;DHT22;35570;48.218;16.326;2023-09-19T07:32:56;19.70;99.90
49679;DHT22;35570;48.218;16.326;2023-09-19T07:35:22;19.70;99.90
49679;DHT22;35570;48.218;16.326;2023-09-19T07:37:48;19.70;99.90
49679;DHT22;35570;48.218;16.326;2023-09-19T07:40:18;19.80;99.90
49679;DHT22;35570;48.218;16.326;2023-09-19T07:42:44;19.80;99.90
49679;DHT22;35570;48.218;16.326;2023-09-19T07:45:12;19.80;99.90
49679;DHT22;35570;48.218;16.326;2023-09-19T07:47:49;19.80;99.90
49679;DHT22;35570;48.218;16.326;2023-09-19T07:50:16;19.80;99.90
49679;DHT22;35570;48.218;16.326;2023-09-19T07:52:45;19.90;99.90
49679;DHT22;35570;48.218;16.326;2023-09-19T07:55:11;19.90;99.90
49679;DHT22;35570;48.218;16.326;2023-09-19T07:57:37;20.00;99.90
49679;DHT22;35570;48.218;16.326;2023-09-19T08:00:03;20.10;99.90
49679;DHT22;35570;48.218;16.326;2023-09-19T08:02:34;20.10;99.90
49679;DHT22;35570;48.218;16.326;2023-09-19T08:05:00;20.20;99.90
49679;DHT22;35570;48.218;16.326;2023-09-19T08:07:26;20.30;99.90
49679;DHT22;35570;48.218;16.326;2023-09-19T08:09:52;20.40;99.90
49679;DHT22;35570;48.218;16.326;2023-09-19T08:12:17;20.50;99.70
49679;DHT22;35570;48.218;16.326;2023-09-19T08:14:45;20.50;99.60
49679;DHT22;35570;48.218;16.326;2023-09-19T08:17:12;20.60;99.60
49679;DHT22;35570;48.218;16.326;2023-09-19T08:19:38;20.60;99.70
49679;DHT22;35570;48.218;16.326;2023-09-19T08:22:07;20.60;99.90
49679;DHT22;35570;48.218;16.326;2023-09-19T08:24:35;20.60;99.70
49679;DHT22;35570;48.218;16.326;2023-09-19T08:27:03;20.60;99.60
49679;DHT22;35570;48.218;16.326;2023-09-19T08:29:30;20.70;99.70
49679;DHT22;35570;48.218;16.326;2023-09-19T08:31:57;20.80;99.40
49679;DHT22;35570;48.218;16.326;2023-09-19T08:34:26;20.90;99.40
49679;DHT22;35570;48.218;16.326;2023-09-19T08:36:53;20.80;99.20
49679;DHT22;35570;48.218;16.326;2023-09-19T08:39:25;20.80;99.40
49679;DHT22;35570;48.218;16.326;2023-09-19T08:42:01;20.80;99.20
49679;DHT22;35570;48.218;16.326;2023-09-19T08:44:29;20.80;99.00
49679;DHT22;35570;48.218;16.326;2023-09-19T08:47:10;20.70;99.50
49679;DHT22;35570;48.218;16.326;2023-09-19T08:49:52;20.70;98.90
49679;DHT22;35570;48.218;16.326;2023-09-19T08:52:36;20.50;99.50
49679;DHT22;35570;48.218;16.326;2023-09-19T08:55:06;20.50;99.30
49679;DHT22;35570;48.218;16.326;2023-09-19T08:57:36;20.50;99.30
49679;DHT22;35570;48.218;16.326;2023-09-19T09:00:05;20.50;99.50
49679;DHT22;35570;48.218;16.326;2023-09-19T09:02:40;20.50;99.50
49679;DHT22;35570;48.218;16.326;2023-09-19T09:05:08;20.50;99.40
49679;DHT22;35570;48.218;16.326;2023-09-19T09:07:36;20.50;99.50
49679;DHT22;35570;48.218;16.326;2023-09-19T09:10:03;20.50;99.30
49679;DHT22;35570;48.218;16.326;2023-09-19T09:12:30;20.50;99.20
49679;DHT22;35570;48.218;16.326;2023-09-19T09:14:56;20.50;99.20
49679;DHT22;35570;48.218;16.326;2023-09-19T09:17:26;20.50;99.00
49679;DHT22;35570;48.218;16.326;2023-09-19T09:19:55;20.50;99.10
49679;DHT22;35570;48.218;16.326;2023-09-19T09:22:21;20.50;99.40
49679;DHT22;35570;48.218;16.326;2023-09-19T09:24:55;20.60;98.90
49679;DHT22;35570;48.218;16.326;2023-09-19T09:27:27;20.60;98.90
49679;DHT22;35570;48.218;16.326;2023-09-19T09:29:53;20.50;98.90
49679;DHT22;35570;48.218;16.326;2023-09-19T09:32:22;20.60;98.90
49679;DHT22;35570;48.218;16.326;2023-09-19T09:34:50;20.70;99.10
49679;DHT22;35570;48.218;16.326;2023-09-19T09:37:17;20.90;98.60
49679;DHT22;35570;48.218;16.326;2023-09-19T09:39:55;21.00;98.40
49679;DHT22;35570;48.218;16.326;2023-09-19T09:42:35;21.20;98.30
49679;DHT22;35570;48.218;16.326;2023-09-19T09:45:33;21.50;97.20
49679;DHT22;35570;48.218;16.326;2023-09-19T09:48:00;21.70;96.90
49679;DHT22;35570;48.218;16.326;2023-09-19T09:50:33;21.80;96.90
49679;DHT22;35570;48.218;16.326;2023-09-19T09:53:31;21.90;96.80
49679;DHT22;35570;48.218;16.326;2023-09-19T10:01:13;23.10;95.20
49679;DHT22;35570;48.218;16.326;2023-09-19T10:03:40;23.20;94.50
49679;DHT22;35570;48.218;16.326;2023-09-19T10:06:13;23.20;93.90
49679;DHT22;35570;48.218;16.326;2023-09-19T10:08:59;23.20;94.30
49679;DHT22;35570;48.218;16.326;2023-09-19T10:11:31;23.20;93.80
49679;DHT22;35570;48.218;16.326;2023-09-19T10:13:59;23.20;93.50
49679;DHT22;35570;48.218;16.326;2023-09-19T10:16:29;23.20;93.70
49679;DHT22;35570;48.218;16.326;2023-09-19T10:18:59;23.40;93.50
49679;DHT22;35570;48.218;16.326;2023-09-19T10:21:28;23.60;93.60
49679;DHT22;35570;48.218;16.326;2023-09-19T10:23:58;23.90;93.00
49679;DHT22;35570;48.218;16.326;2023-09-19T10:26:26;24.00;94.70
49679;DHT22;35570;48.218;16.326;2023-09-19T10:28:56;24.00;95.30
49679;DHT22;35570;48.218;16.326;2023-09-19T10:31:23;24.10;95.60
49679;DHT22;35570;48.218;16.326;2023-09-19T10:33:51;24.40;96.10
49679;DHT22;35570;48.218;16.326;2023-09-19T10:36:19;24.50;91.10
49679;DHT22;35570;48.218;16.326;2023-09-19T10:38:46;24.80;90.40
49679;DHT22;35570;48.218;16.326;2023-09-19T10:41:15;25.30;91.10
49679;DHT22;35570;48.218;16.326;2023-09-19T10:46:12;26.60;95.90
49679;DHT22;35570;48.218;16.326;2023-09-19T10:48:39;27.40;91.90
49679;DHT22;35570;48.218;16.326;2023-09-19T10:51:15;27.70;79.80
49679;DHT22;35570;48.218;16.326;2023-09-19T10:54:05;27.90;77.30
49679;DHT22;35570;48.218;16.326;2023-09-19T10:56:35;27.70;75.30
49679;DHT22;35570;48.218;16.326;2023-09-19T10:59:15;27.40;77.20
49679;DHT22;35570;48.218;16.326;2023-09-19T11:01:43;27.40;77.40
49679;DHT22;35570;48.218;16.326;2023-09-19T11:04:31;27.70;77.40
49679;DHT22;35570;48.218;16.326;2023-09-19T11:09:52;27.70;75.80
49679;DHT22;35570;48.218;16.326;2023-09-19T11:15:02;27.50;74.20
49679;DHT22;35570;48.218;16.326;2023-09-19T11:17:40;27.00;75.80
49679;DHT22;35570;48.218;16.326;2023-09-19T11:30:31;25.50;95.40
49679;DHT22;35570;48.218;16.326;2023-09-19T11:33:20;25.50;95.90
49679;DHT22;35570;48.218;16.326;2023-09-19T11:36:12;25.10;96.60
49679;DHT22;35570;48.218;16.326;2023-09-19T11:49:18;26.80;84.80
49679;DHT22;35570;48.218;16.326;2023-09-19T11:51:50;27.40;83.00
49679;DHT22;35570;48.218;16.326;2023-09-19T11:54:20;27.40;82.80
49679;DHT22;35570;48.218;16.326;2023-09-19T11:56:52;27.30;83.80
49679;DHT22;35570;48.218;16.326;2023-09-19T12:01:52;27.30;82.80
49679;DHT22;35570;48.218;16.326;2023-09-19T12:04:43;27.00;83.00
49679;DHT22;35570;48.218;16.326;2023-09-19T12:07:15;27.30;82.50
49679;DHT22;35570;48.218;16.326;2023-09-19T12:09:48;27.50;82.60
49679;DHT22;35570;48.218;16.326;2023-09-19T12:12:22;27.60;70.60
49679;DHT22;35570;48.218;16.326;2023-09-19T12:17:17;28.00;68.60
49679;DHT22;35570;48.218;16.326;2023-09-19T12:19:56;28.20;69.20
49679;DHT22;35570;48.218;16.326;2023-09-19T12:22:22;28.90;67.40
49679;DHT22;35570;48.218;16.326;2023-09-19T12:24:48;29.20;65.10
49679;DHT22;35570;48.218;16.326;2023-09-19T12:27:16;29.30;65.40
49679;DHT22;35570;48.218;16.326;2023-09-19T12:29:46;29.40;63.90
49679;DHT22;35570;48.218;16.326;2023-09-19T12:32:14;29.70;63.30
49679;DHT22;35570;48.218;16.326;2023-09-19T12:34:42;29.90;62.90
49679;DHT22;35570;48.218;16.326;2023-09-19T12:37:15;29.90;62.00
49679;DHT22;35570;48.218;16.326;2023-09-19T12:40:08;30.10;60.80
49679;DHT22;35570;48.218;16.326;2023-09-19T12:42:43;29.90;59.70
49679;DHT22;35570;48.218;16.326;2023-09-19T12:45:10;29.60;60.60
49679;DHT22;35570;48.218;16.326;2023-09-19T12:47:37;29.20;60.90
49679;DHT22;35570;48.218;16.326;2023-09-19T12:50:12;29.00;61.80
49679;DHT22;35570;48.218;16.326;2023-09-19T12:55:24;28.90;62.80
49679;DHT22;35570;48.218;16.326;2023-09-19T12:58:12;29.30;62.60
49679;DHT22;35570;48.218;16.326;2023-09-19T13:00:44;29.70;61.30
49679;DHT22;35570;48.218;16.326;2023-09-19T13:06:01;29.90;59.70
49679;DHT22;35570;48.218;16.326;2023-09-19T13:08:38;30.00;59.60
49679;DHT22;35570;48.218;16.326;2023-09-19T13:13:49;29.30;59.30
49679;DHT22;35570;48.218;16.326;2023-09-19T13:16:20;28.90;58.90
49679;DHT22;35570;48.218;16.326;2023-09-19T13:18:57;28.50;59.60
49679;DHT22;35570;48.218;16.326;2023-09-19T13:21:32;28.30;59.00
49679;DHT22;35570;48.218;16.326;2023-09-19T13:24:19;27.80;60.10
49679;DHT22;35570;48.218;16.326;2023-09-19T13:26:45;27.60;60.70
49679;DHT22;35570;48.218;16.326;2023-09-19T13:29:11;27.70;61.30
49679;DHT22;35570;48.218;16.326;2023-09-19T13:31:37;28.20;60.90
49679;DHT22;35570;48.218;16.326;2023-09-19T13:34:07;28.50;59.90
49679;DHT22;35570;48.218;16.326;2023-09-19T13:36:32;29.00;59.00
49679;DHT22;35570;48.218;16.326;2023-09-19T13:38:59;29.10;58.40
49679;DHT22;35570;48.218;16.326;2023-09-19T13:41:25;29.50;57.40
49679;DHT22;35570;48.218;16.326;2023-09-19T13:43:51;29.30;57.00
49679;DHT22;35570;48.218;16.326;2023-09-19T13:46:17;29.30;57.20
49679;DHT22;35570;48.218;16.326;2023-09-19T13:48:50;29.20;57.20
49679;DHT22;35570;48.218;16.326;2023-09-19T13:51:17;29.20;57.80
49679;DHT22;35570;48.218;16.326;2023-09-19T13:53:44;28.90;57.50
49679;DHT22;35570;48.218;16.326;2023-09-19T13:56:10;28.50;57.80
49679;DHT22;35570;48.218;16.326;2023-09-19T13:58:36;28.10;59.20
49679;DHT22;35570;48.218;16.326;2023-09-19T14:01:02;27.80;59.80
49679;DHT22;35570;48.218;16.326;2023-09-19T14:03:28;27.50;60.50
49679;DHT22;35570;48.218;16.326;2023-09-19T14:05:54;27.70;63.10
49679;DHT22;35570;48.218;16.326;2023-09-19T14:08:20;28.10;60.40
49679;DHT22;35570;48.218;16.326;2023-09-19T14:10:45;28.30;59.40
49679;DHT22;35570;48.218;16.326;2023-09-19T14:13:11;28.30;58.80
49679;DHT22;35570;48.218;16.326;2023-09-19T14:15:38;28.00;58.90
49679;DHT22;35570;48.218;16.326;2023-09-19T14:18:04;27.60;59.90
49679;DHT22;35570;48.218;16.326;2023-09-19T14:20:30;27.60;60.70
49679;DHT22;35570;48.218;16.326;2023-09-19T14:22:57;27.70;60.20
49679;DHT22;35570;48.218;16.326;2023-09-19T14:25:24;28.10;61.00
49679;DHT22;35570;48.218;16.326;2023-09-19T14:27:50;28.50;60.40
49679;DHT22;35570;48.218;16.326;2023-09-19T14:30:17;28.90;58.20
49679;DHT22;35570;48.218;16.326;2023-09-19T14:32:42;29.00;57.20
49679;DHT22;35570;48.218;16.326;2023-09-19T14:35:08;28.90;57.80
49679;DHT22;35570;48.218;16.326;2023-09-19T14:37:39;28.80;57.30
49679;DHT22;35570;48.218;16.326;2023-09-19T14:40:05;28.70;58.00
49679;DHT22;35570;48.218;16.326;2023-09-19T14:42:35;28.60;57.60
49679;DHT22;35570;48.218;16.326;2023-09-19T14:45:02;28.70;57.70
49679;DHT22;35570;48.218;16.326;2023-09-19T14:47:28;28.60;57.70
49679;DHT22;35570;48.218;16.326;2023-09-19T14:49:53;28.60;58.80
49679;DHT22;35570;48.218;16.326;2023-09-19T14:52:19;28.70;58.10
49679;DHT22;35570;48.218;16.326;2023-09-19T14:54:45;28.70;58.30
49679;DHT22;35570;48.218;16.326;2023-09-19T14:57:10;28.90;58.20
49679;DHT22;35570;48.218;16.326;2023-09-19T14:59:36;28.70;57.30
49679;DHT22;35570;48.218;16.326;2023-09-19T15:02:06;28.60;58.50
49679;DHT22;35570;48.218;16.326;2023-09-19T15:04:32;28.40;58.90
49679;DHT22;35570;48.218;16.326;2023-09-19T15:06:59;28.50;58.90
49679;DHT22;35570;48.218;16.326;2023-09-19T15:09:26;28.60;58.50
49679;DHT22;35570;48.218;16.326;2023-09-19T15:11:53;28.50;58.40
49679;DHT22;35570;48.218;16.326;2023-09-19T15:14:19;28.30;59.90
49679;DHT22;35570;48.218;16.326;2023-09-19T15:19:14;27.60;87.90
49679;DHT22;35570;48.218;16.326;2023-09-19T15:21:41;26.70;62.80
49679;DHT22;35570;48.218;16.326;2023-09-19T15:24:08;26.50;67.10
49679;DHT22;35570;48.218;16.326;2023-09-19T15:26:37;26.20;64.00
49679;DHT22;35570;48.218;16.326;2023-09-19T15:29:09;26.20;64.60
49679;DHT22;35570;48.218;16.326;2023-09-19T15:31:36;26.20;64.50
49679;DHT22;35570;48.218;16.326;2023-09-19T15:34:04;26.20;64.90
49679;DHT22;35570;48.218;16.326;2023-09-19T15:36:31;26.20;64.60
49679;DHT22;35570;48.218;16.326;2023-09-19T15:41:31;26.00;64.90
49679;DHT22;35570;48.218;16.326;2023-09-19T15:43:59;26.10;65.60
49679;DHT22;35570;48.218;16.326;2023-09-19T15:46:27;26.10;65.70
49679;DHT22;35570;48.218;16.326;2023-09-19T15:48:55;26.00;65.00
49679;DHT22;35570;48.218;16.326;2023-09-19T15:51:23;26.00;65.50
49679;DHT22;35570;48.218;16.326;2023-09-19T15:53:51;26.00;65.90
49679;DHT22;35570;48.218;16.326;2023-09-19T15:56:19;25.70;65.50
49679;DHT22;35570;48.218;16.326;2023-09-19T15:58:50;25.70;66.20
49679;DHT22;35570;48.218;16.326;2023-09-19T16:01:17;25.60;67.50
49679;DHT22;35570;48.218;16.326;2023-09-19T16:03:52;25.50;67.00
49679;DHT22;35570;48.218;16.326;2023-09-19T16:06:20;25.40;67.50
49679;DHT22;35570;48.218;16.326;2023-09-19T16:08:50;25.50;67.40
49679;DHT22;35570;48.218;16.326;2023-09-19T16:11:18;25.50;68.30
49679;DHT22;35570;48.218;16.326;2023-09-19T16:13:48;25.50;66.80
49679;DHT22;35570;48.218;16.326;2023-09-19T16:16:16;25.20;66.20
49679;DHT22;35570;48.218;16.326;2023-09-19T16:18:49;25.10;66.80
49679;DHT22;35570;48.218;16.326;2023-09-19T16:21:24;25.00;67.10
49679;DHT22;35570;48.218;16.326;2023-09-19T16:23:52;24.70;68.00
49679;DHT22;35570;48.218;16.326;2023-09-19T16:26:21;24.50;67.50
49679;DHT22;35570;48.218;16.326;2023-09-19T16:28:54;24.30;68.30
49679;DHT22;35570;48.218;16.326;2023-09-19T16:31:27;24.10;69.10
49679;DHT22;35570;48.218;16.326;2023-09-19T16:33:54;23.90;70.30